Thursday, July 19, 2018, 1:24 PM EDT
Back to Local

KLNS, Lancaster Airport

Location: Lititz, PA, United States Lat: 40.117
Local Time: 1:24 PM EDT (17:24 GMT) Lon: -76.3
Time Zone: US/Eastern Elev: 403 ft

Show me the last for .
Show Decoded

2018-07-19 12:53 METAR KLNS 191653Z VRB03KT 10SM CLR 27/12 A3011 RMK AO2 SLP193 T02720122 =
2018-07-19 11:53 METAR KLNS 191553Z 00000KT 10SM CLR 26/11 A3012 RMK AO2 SLP197 T02610111 =
2018-07-19 10:53 METAR KLNS 191453Z 08005KT 10SM CLR 24/11 A3013 RMK AO2 SLP198 T02440106 51006 =
2018-07-19 09:53 METAR KLNS 191353Z VRB04KT 10SM CLR 24/11 A3012 RMK AO2 SLP198 T02390106 =
2018-07-19 08:53 METAR KLNS 191253Z 34006KT 10SM CLR 22/09 A3012 RMK AO2 SLP196 T02220094 =
2018-07-19 07:53 METAR KLNS 191153Z 01004KT 10SM CLR 21/12 A3011 RMK AO2 SLP191 T02060117 10206
                 20150 52009 =
2018-07-19 06:53 METAR KLNS 191053Z 00000KT 10SM CLR 17/12 A3010 RMK AO2 SLP190 T01670122 =
2018-07-19 05:53 METAR KLNS 190953Z 28004KT 10SM CLR 16/12 A3008 RMK AO2 SLP185 T01610117 =
2018-07-19 04:53 METAR KLNS 190853Z AUTO 00000KT 10SM CLR 16/12 A3008 RMK AO2 SLP182 T01610122
                 51010 =
2018-07-19 03:53 METAR KLNS 190753Z AUTO 00000KT 10SM CLR 17/13 A3007 RMK AO2 SLP180 T01720128 =
2018-07-19 02:53 METAR KLNS 190653Z AUTO 00000KT 10SM CLR 18/13 A3006 RMK AO2 SLP176 T01830133 =
2018-07-19 01:53 METAR KLNS 190553Z AUTO 11005KT 10SM CLR 18/14 A3005 RMK AO2 SLP171 T01830139
                 10267 20183 53016 =
2018-07-19 00:53 METAR KLNS 190453Z AUTO 13005KT 10SM CLR 19/14 A3003 RMK AO2 SLP166 T01890144
                 403000189 =
2018-07-18 23:53 METAR KLNS 190353Z AUTO 07003KT 10SM CLR 19/15 A3002 RMK AO2 SLP161 T01940150 =
2018-07-18 22:53 METAR KLNS 190253Z 00000KT 10SM CLR 21/15 A3000 RMK AO2 SLP155 T02060150 51014 =
2018-07-18 21:53 METAR KLNS 190153Z 00000KT 10SM CLR 22/14 A2999 RMK AO2 SLP152 T02170144 =
2018-07-18 20:53 METAR KLNS 190053Z 35004KT 10SM CLR 24/13 A2997 RMK AO2 SLP146 T02390133 =
2018-07-18 19:53 METAR KLNS 182353Z 35007KT 10SM CLR 27/13 A2996 RMK AO2 SLP141 T02670128 10300
                 20261 53003 =
2018-07-18 18:53 METAR KLNS 182253Z 34010KT 10SM CLR 28/13 A2995 RMK AO2 SLP138 T02780133 =
2018-07-18 17:53 METAR KLNS 182153Z 01006KT 10SM CLR 28/15 A2995 RMK AO2 SLP137 T02830150 =
2018-07-18 16:53 METAR KLNS 182053Z 33009KT 10SM FEW060 BKN080 29/14 A2995 RMK AO2 SLP138
                 T02890144 58003 =
2018-07-18 15:53 METAR KLNS 181953Z 02007KT 10SM FEW070 SCT085 29/13 A2995 RMK AO2 SLP139
                 T02890133 =
2018-07-18 14:53 METAR KLNS 181853Z 02009KT 10SM FEW055 29/15 A2996 RMK AO2 SLP142 T02940150 =
2018-07-18 13:53 METAR KLNS 181753Z 01012KT 10SM FEW055 29/16 A2996 RMK AO2 SLP140 T02890156
                 10289 20222 56005 =

Support USWX by starting your Amazon purchase here.